Time;durP1;ratioP1;P1;durP2;ratioP2;P2;SDS_P1;SDS_P2;PMS_P1;PMS_P2;Temp;Humidity;BMP_temperature;BMP_pressure;BME280_temperature;BME280_humidity;BME280_pressure;Samples;Min_cycle;Max_cycle;Signal;HPM_P1;HPM_P2
2022/03/09 00:01:46;;;;;;;8.30;5.20;;;;;;;;;;5068366;28;20129;-58
2022/03/09 00:04:12;;;;;;;8.50;5.25;;;;;;;;;;5067421;28;20407;-59
2022/03/09 00:06:38;;;;;;;8.75;5.90;;;;;;;;;;5068687;28;20047;-59
2022/03/09 00:09:04;;;;;;;9.00;5.30;;;;;;;;;;5065825;28;20486;-59
2022/03/09 00:11:30;;;;;;;10.80;5.70;;;;;;;;;;5067530;28;20029;-59
2022/03/09 00:13:57;;;;;;;7.43;5.57;;;;;;;;;;5067988;28;20470;-59
2022/03/09 00:16:23;;;;;;;10.57;5.70;;;;;;;;;;5068587;28;20040;-59
2022/03/09 00:18:48;;;;;;;9.10;5.63;;;;;;;;;;5067184;28;20036;-59
2022/03/09 00:21:15;;;;;;;8.20;5.30;;;;;;;;;;5067482;28;20044;-59
2022/03/09 00:23:41;;;;;;;7.70;5.53;;;;;;;;;;5047586;28;20049;-59
2022/03/09 00:26:07;;;;;;;8.75;5.32;;;;;;;;;;5067378;28;20039;-59
2022/03/09 00:28:33;;;;;;;8.65;5.53;;;;;;;;;;5066633;28;20037;-59
2022/03/09 00:30:59;;;;;;;9.52;6.25;;;;;;;;;;5066494;28;20091;-59
2022/03/09 00:33:25;;;;;;;9.13;5.50;;;;;;;;;;5066389;28;20138;-59
2022/03/09 00:35:51;;;;;;;10.88;5.80;;;;;;;;;;5068392;28;20191;-59
2022/03/09 00:38:17;;;;;;;10.68;6.22;;;;;;;;;;5066639;28;20036;-58
2022/03/09 00:40:47;;;;;;;8.43;5.80;;;;;;;;;;5068214;28;20735;-59
2022/03/09 00:43:13;;;;;;;8.80;5.88;;;;;;;;;;5066297;28;20093;-59
2022/03/09 00:45:39;;;;;;;8.65;5.93;;;;;;;;;;5066032;28;20041;-59
2022/03/09 00:48:05;;;;;;;11.95;5.55;;;;;;;;;;5066450;28;20041;-59
2022/03/09 00:50:31;;;;;;;8.38;5.40;;;;;;;;;;5067551;28;20040;-59
2022/03/09 00:52:57;;;;;;;8.65;6.05;;;;;;;;;;5066705;28;20039;-59
2022/03/09 00:55:23;;;;;;;11.07;6.25;;;;;;;;;;5066168;28;20418;-58
2022/03/09 00:57:49;;;;;;;9.07;5.50;;;;;;;;;;5067946;28;21175;-59
2022/03/09 01:00:15;;;;;;;9.50;5.72;;;;;;;;;;5067331;28;20037;-59
2022/03/09 01:02:45;;;;;;;7.95;5.40;;;;;;;;;;5065675;28;20054;-59
2022/03/09 01:05:11;;;;;;;9.00;6.03;;;;;;;;;;5066446;28;20413;-59
2022/03/09 01:07:38;;;;;;;8.70;6.13;;;;;;;;;;5066572;28;20032;-59
2022/03/09 01:10:04;;;;;;;10.13;5.80;;;;;;;;;;5066365;28;20050;-59
2022/03/09 01:12:30;;;;;;;11.05;5.72;;;;;;;;;;5066182;28;20033;-59
2022/03/09 01:14:56;;;;;;;9.63;5.78;;;;;;;;;;5053461;28;20390;-59
2022/03/09 01:17:23;;;;;;;8.93;6.10;;;;;;;;;;5069083;28;21083;-59
2022/03/09 01:19:49;;;;;;;10.98;6.97;;;;;;;;;;5068829;28;20044;-59
2022/03/09 01:22:15;;;;;;;10.75;6.25;;;;;;;;;;5069822;28;20132;-59
2022/03/09 01:24:41;;;;;;;9.35;6.03;;;;;;;;;;5069711;28;20131;-59
2022/03/09 01:27:07;;;;;;;10.63;6.75;;;;;;;;;;5068649;28;20047;-59
2022/03/09 01:29:33;;;;;;;10.88;6.40;;;;;;;;;;5070471;28;20456;-59
2022/03/09 01:31:59;;;;;;;10.15;6.50;;;;;;;;;;5071347;28;20059;-59
2022/03/09 01:34:25;;;;;;;12.18;6.60;;;;;;;;;;5068032;28;20197;-59
2022/03/09 01:36:51;;;;;;;10.60;6.43;;;;;;;;;;5070344;28;20032;-59
2022/03/09 01:39:17;;;;;;;11.05;6.38;;;;;;;;;;5069963;28;20433;-59
2022/03/09 01:41:43;;;;;;;10.43;5.55;;;;;;;;;;5069687;28;20076;-59
2022/03/09 01:44:09;;;;;;;9.50;6.53;;;;;;;;;;5069764;28;20040;-58
2022/03/09 01:46:35;;;;;;;10.07;6.90;;;;;;;;;;5069628;28;20047;-59
2022/03/09 01:49:01;;;;;;;11.45;6.75;;;;;;;;;;5068363;28;20043;-59
2022/03/09 01:51:27;;;;;;;10.77;6.47;;;;;;;;;;5070455;28;20033;-58
2022/03/09 01:53:53;;;;;;;10.75;6.88;;;;;;;;;;5070045;28;20033;-58
2022/03/09 01:56:19;;;;;;;10.40;6.55;;;;;;;;;;5070814;28;20048;-59
2022/03/09 01:58:45;;;;;;;13.95;6.80;;;;;;;;;;5069222;28;20452;-58
2022/03/09 02:01:11;;;;;;;12.98;7.25;;;;;;;;;;5070177;28;20041;-59
2022/03/09 02:03:37;;;;;;;11.85;7.22;;;;;;;;;;5069230;28;20072;-59
2022/03/09 02:06:03;;;;;;;11.32;6.82;;;;;;;;;;5070230;28;20085;-59
2022/03/09 02:11:14;;;;;;;11.93;7.60;;;;;;;;;;5069928;28;20044;-58
2022/03/09 02:13:40;;;;;;;9.65;6.75;;;;;;;;;;5051281;28;20044;-58
2022/03/09 02:16:07;;;;;;;10.25;7.00;;;;;;;;;;5070499;28;20033;-59
2022/03/09 02:18:32;;;;;;;12.30;6.72;;;;;;;;;;5065567;28;20062;-59
2022/03/09 02:21:02;;;;;;;12.40;7.30;;;;;;;;;;5070329;28;20048;-59
2022/03/09 02:23:28;;;;;;;11.13;6.70;;;;;;;;;;5070823;28;20486;-59
2022/03/09 02:25:54;;;;;;;10.50;6.82;;;;;;;;;;5069975;28;20067;-58
2022/03/09 02:28:20;;;;;;;10.70;6.90;;;;;;;;;;5068128;28;20127;-59
2022/03/09 02:30:46;;;;;;;10.93;7.15;;;;;;;;;;5070091;28;20048;-59
2022/03/09 02:33:12;;;;;;;11.73;7.13;;;;;;;;;;5070650;28;20465;-59
2022/03/09 02:35:39;;;;;;;11.05;7.60;;;;;;;;;;5069918;28;20036;-59
2022/03/09 02:38:05;;;;;;;13.57;7.55;;;;;;;;;;5053934;28;20502;-59
2022/03/09 02:40:31;;;;;;;11.85;7.43;;;;;;;;;;5071996;28;20109;-59
2022/03/09 02:42:57;;;;;;;13.73;7.40;;;;;;;;;;5071332;28;20044;-59
2022/03/09 02:45:23;;;;;;;13.02;7.43;;;;;;;;;;5059780;28;20060;-59
2022/03/09 02:47:49;;;;;;;14.38;7.20;;;;;;;;;;5070282;28;20040;-59
2022/03/09 02:50:15;;;;;;;11.00;7.15;;;;;;;;;;5064263;28;20447;-59
2022/03/09 02:52:42;;;;;;;9.48;7.03;;;;;;;;;;5069824;28;20032;-59
2022/03/09 02:55:08;;;;;;;12.40;7.60;;;;;;;;;;5070625;28;20114;-59
2022/03/09 02:57:34;;;;;;;11.80;7.35;;;;;;;;;;5070001;28;20127;-59
2022/03/09 03:00:00;;;;;;;12.73;7.28;;;;;;;;;;5068865;28;20048;-59
2022/03/09 03:02:27;;;;;;;10.68;6.95;;;;;;;;;;5066136;28;20056;-59
2022/03/09 03:04:53;;;;;;;11.48;7.05;;;;;;;;;;5068846;28;20033;-59
2022/03/09 03:07:19;;;;;;;13.75;7.38;;;;;;;;;;5065702;28;20406;-58
2022/03/09 03:09:44;;;;;;;13.43;7.40;;;;;;;;;;5050925;28;20043;-59
2022/03/09 03:12:10;;;;;;;16.50;8.05;;;;;;;;;;5071287;28;20050;-59
2022/03/09 03:14:36;;;;;;;12.05;7.05;;;;;;;;;;5071079;28;20047;-58
2022/03/09 03:17:02;;;;;;;15.65;7.88;;;;;;;;;;5069498;28;20113;-59
2022/03/09 03:19:28;;;;;;;12.13;7.38;;;;;;;;;;5069684;28;20044;-59
2022/03/09 03:21:54;;;;;;;12.32;7.32;;;;;;;;;;5069774;28;20418;-59
2022/03/09 03:24:20;;;;;;;12.80;7.78;;;;;;;;;;5068424;28;20101;-59
2022/03/09 03:26:46;;;;;;;11.27;6.90;;;;;;;;;;5069351;28;20564;-59
2022/03/09 03:29:12;;;;;;;12.48;7.78;;;;;;;;;;5068919;28;20047;-59
2022/03/09 03:31:38;;;;;;;11.35;7.40;;;;;;;;;;5072537;28;20040;-59
2022/03/09 03:34:04;;;;;;;11.77;7.97;;;;;;;;;;5067528;28;20037;-59
2022/03/09 03:36:30;;;;;;;14.82;8.88;;;;;;;;;;5068067;28;20386;-59
2022/03/09 03:38:56;;;;;;;11.90;8.20;;;;;;;;;;5069093;28;20102;-59
2022/03/09 03:41:22;;;;;;;12.73;7.68;;;;;;;;;;5067970;28;20474;-59
2022/03/09 03:43:48;;;;;;;12.30;7.88;;;;;;;;;;5068962;28;20076;-59
2022/03/09 03:46:14;;;;;;;13.27;8.50;;;;;;;;;;5067361;28;20072;-58
2022/03/09 03:48:40;;;;;;;14.13;8.35;;;;;;;;;;5049773;28;20055;-59
2022/03/09 03:51:06;;;;;;;13.63;7.80;;;;;;;;;;5068402;28;20070;-59
2022/03/09 03:53:32;;;;;;;10.98;7.38;;;;;;;;;;5069247;28;20070;-59
2022/03/09 03:55:58;;;;;;;12.68;7.30;;;;;;;;;;5049180;28;20046;-59
2022/03/09 03:58:24;;;;;;;13.05;7.57;;;;;;;;;;5068647;28;20203;-58
2022/03/09 04:00:50;;;;;;;13.00;8.00;;;;;;;;;;5069592;28;20115;-59
2022/03/09 04:03:16;;;;;;;15.65;8.85;;;;;;;;;;5067952;28;20040;-59
2022/03/09 04:05:42;;;;;;;14.20;8.63;;;;;;;;;;5068677;28;20044;-59
2022/03/09 04:08:08;;;;;;;12.07;7.85;;;;;;;;;;5067604;28;20460;-59
2022/03/09 04:10:34;;;;;;;15.70;8.13;;;;;;;;;;5067969;28;20033;-58
2022/03/09 04:13:03;;;;;;;13.75;8.57;;;;;;;;;;5067797;28;20494;-58
2022/03/09 04:15:30;;;;;;;12.23;7.70;;;;;;;;;;5060534;28;20044;-58
2022/03/09 04:17:56;;;;;;;13.68;8.23;;;;;;;;;;5067626;28;20101;-58
2022/03/09 04:20:22;;;;;;;12.73;8.07;;;;;;;;;;5068938;28;20044;-59
2022/03/09 04:22:48;;;;;;;15.63;8.38;;;;;;;;;;5066697;28;20036;-59
2022/03/09 04:25:14;;;;;;;14.70;7.90;;;;;;;;;;5063851;28;20041;-59
2022/03/09 04:27:40;;;;;;;12.73;8.55;;;;;;;;;;5067674;28;20033;-58
2022/03/09 04:30:06;;;;;;;13.63;9.10;;;;;;;;;;5068009;28;20044;-59
2022/03/09 04:32:34;;;;;;;12.02;7.65;;;;;;;;;;5068201;28;20597;-59
2022/03/09 04:35:00;;;;;;;16.02;8.90;;;;;;;;;;5049088;28;20119;-59
2022/03/09 04:37:30;;;;;;;11.57;8.32;;;;;;;;;;5067807;28;20182;-58
2022/03/09 04:39:56;;;;;;;14.70;8.50;;;;;;;;;;5067311;28;20045;-58
2022/03/09 04:42:22;;;;;;;15.75;8.23;;;;;;;;;;5069998;28;20147;-59
2022/03/09 04:44:48;;;;;;;12.50;8.23;;;;;;;;;;5063514;28;20037;-59
2022/03/09 04:47:14;;;;;;;13.93;8.55;;;;;;;;;;5064811;28;20064;-59
2022/03/09 04:49:40;;;;;;;13.40;8.05;;;;;;;;;;5068632;28;20031;-58
2022/03/09 04:52:06;;;;;;;12.68;7.78;;;;;;;;;;5074152;28;20054;-59
2022/03/09 04:54:32;;;;;;;14.25;8.15;;;;;;;;;;5069048;28;20128;-59
2022/03/09 04:56:58;;;;;;;12.82;8.18;;;;;;;;;;5072465;28;20076;-58
2022/03/09 04:59:24;;;;;;;11.50;8.25;;;;;;;;;;5065714;28;20571;-58
2022/03/09 05:01:50;;;;;;;14.20;8.30;;;;;;;;;;5069602;28;20058;-58
2022/03/09 05:04:16;;;;;;;14.13;8.30;;;;;;;;;;5073638;28;20044;-58
2022/03/09 05:06:42;;;;;;;14.32;7.55;;;;;;;;;;5067130;28;20032;-58
2022/03/09 05:09:08;;;;;;;13.70;8.18;;;;;;;;;;5069456;28;20048;-58
2022/03/09 05:11:34;;;;;;;12.50;7.95;;;;;;;;;;5072650;28;20036;-59
2022/03/09 05:14:00;;;;;;;12.20;7.80;;;;;;;;;;5073028;28;20877;-59
2022/03/09 05:16:26;;;;;;;12.77;8.25;;;;;;;;;;5069793;28;20040;-59
2022/03/09 05:18:52;;;;;;;17.40;8.43;;;;;;;;;;5061880;28;20044;-58
2022/03/09 05:21:18;;;;;;;12.23;7.75;;;;;;;;;;5070512;28;20060;-58
2022/03/09 05:23:44;;;;;;;12.90;8.32;;;;;;;;;;5072816;28;20033;-58
2022/03/09 05:26:09;;;;;;;14.43;9.05;;;;;;;;;;5094127;22;20466;-58
2022/03/09 05:28:35;;;;;;;14.10;8.73;;;;;;;;;;5092623;28;20097;-59
2022/03/09 05:31:01;;;;;;;13.35;8.48;;;;;;;;;;5092129;28;20054;-58
2022/03/09 05:33:27;;;;;;;13.13;8.15;;;;;;;;;;5087686;28;20436;-58
2022/03/09 05:35:53;;;;;;;15.15;9.20;;;;;;;;;;5094238;28;20028;-58
2022/03/09 05:38:19;;;;;;;16.02;8.88;;;;;;;;;;5094460;28;20075;-58
2022/03/09 05:40:45;;;;;;;11.70;7.90;;;;;;;;;;5093999;28;20563;-58
2022/03/09 05:43:11;;;;;;;12.30;8.30;;;;;;;;;;5082156;28;20047;-58
2022/03/09 05:45:37;;;;;;;13.80;8.63;;;;;;;;;;5091595;28;20043;-58
2022/03/09 05:48:04;;;;;;;16.15;8.52;;;;;;;;;;5092853;28;20044;-58
2022/03/09 05:50:30;;;;;;;12.15;7.45;;;;;;;;;;5094169;28;20036;-58
2022/03/09 05:52:56;;;;;;;12.75;7.78;;;;;;;;;;5097688;28;20169;-58
2022/03/09 05:55:22;;;;;;;10.85;7.40;;;;;;;;;;5092112;28;20036;-59
2022/03/09 05:57:48;;;;;;;14.90;8.30;;;;;;;;;;5084184;28;20047;-58
2022/03/09 06:00:15;;;;;;;11.70;8.05;;;;;;;;;;5088649;28;20042;-58
2022/03/09 06:02:41;;;;;;;10.43;7.47;;;;;;;;;;5091216;28;20402;-58
2022/03/09 06:05:07;;;;;;;13.35;8.00;;;;;;;;;;5092475;28;20539;-58
2022/03/09 06:07:34;;;;;;;12.35;8.20;;;;;;;;;;5095010;28;20036;-58
2022/03/09 06:10:00;;;;;;;12.45;8.10;;;;;;;;;;5092174;28;20558;-58
2022/03/09 06:12:26;;;;;;;12.48;7.57;;;;;;;;;;5096393;28;20082;-58
2022/03/09 06:14:52;;;;;;;13.50;8.02;;;;;;;;;;5093731;28;20036;-58
2022/03/09 06:17:18;;;;;;;13.25;8.00;;;;;;;;;;5087124;28;20135;-59
2022/03/09 06:19:44;;;;;;;11.30;7.63;;;;;;;;;;5091605;28;20479;-58
2022/03/09 06:22:10;;;;;;;13.27;7.72;;;;;;;;;;5091931;28;20072;-58
2022/03/09 06:24:36;;;;;;;14.02;8.27;;;;;;;;;;5100164;28;20032;-58
2022/03/09 06:27:02;;;;;;;13.23;7.82;;;;;;;;;;5092973;28;20040;-58
2022/03/09 06:29:28;;;;;;;12.20;7.90;;;;;;;;;;5096440;28;20111;-57
2022/03/09 06:31:55;;;;;;;14.43;8.20;;;;;;;;;;5089956;28;20119;-57
2022/03/09 06:34:21;;;;;;;15.48;8.60;;;;;;;;;;5091831;28;20408;-57
2022/03/09 06:36:47;;;;;;;15.68;8.45;;;;;;;;;;5093862;28;20041;-58
2022/03/09 06:39:13;;;;;;;13.00;7.90;;;;;;;;;;5083307;28;20044;-58
2022/03/09 06:41:43;;;;;;;13.27;8.18;;;;;;;;;;5083852;28;20096;-58
2022/03/09 06:44:09;;;;;;;13.95;8.57;;;;;;;;;;5090987;28;20115;-58
2022/03/09 06:46:35;;;;;;;13.27;8.65;;;;;;;;;;5086328;28;20044;-58
2022/03/09 06:49:01;;;;;;;13.55;8.25;;;;;;;;;;5088662;28;20485;-58
2022/03/09 06:51:27;;;;;;;13.48;7.93;;;;;;;;;;5078864;28;20040;-58
2022/03/09 06:53:53;;;;;;;15.95;8.07;;;;;;;;;;5091703;28;20119;-58
2022/03/09 06:56:19;;;;;;;13.73;8.88;;;;;;;;;;5083414;28;20122;-58
2022/03/09 06:58:46;;;;;;;13.45;8.15;;;;;;;;;;5095359;28;20044;-58
2022/03/09 07:01:12;;;;;;;13.48;8.63;;;;;;;;;;5087440;28;20059;-58
2022/03/09 07:03:38;;;;;;;14.75;9.77;;;;;;;;;;5086890;28;20043;-58
2022/03/09 07:06:04;;;;;;;23.70;17.27;;;;;;;;;;5091524;28;20033;-58
2022/03/09 07:08:30;;;;;;;16.33;8.73;;;;;;;;;;5091718;28;20040;-58
2022/03/09 07:10:56;;;;;;;20.23;14.13;;;;;;;;;;5091747;28;20082;-58
2022/03/09 07:13:22;;;;;;;21.08;13.73;;;;;;;;;;5092218;28;20072;-58
2022/03/09 07:15:48;;;;;;;18.90;8.77;;;;;;;;;;5092360;28;20050;-58
2022/03/09 07:18:15;;;;;;;14.77;8.93;;;;;;;;;;5090800;28;20082;-58
2022/03/09 07:20:41;;;;;;;14.32;9.13;;;;;;;;;;5090797;28;20048;-58
2022/03/09 07:23:07;;;;;;;12.85;7.95;;;;;;;;;;5091859;28;20596;-58
2022/03/09 07:25:34;;;;;;;16.58;9.07;;;;;;;;;;5091756;28;20616;-58
2022/03/09 07:28:00;;;;;;;15.18;8.38;;;;;;;;;;5090819;28;20118;-58
2022/03/09 07:30:26;;;;;;;15.02;8.27;;;;;;;;;;5104711;28;20072;-58
2022/03/09 07:32:52;;;;;;;14.05;8.50;;;;;;;;;;5090534;28;20447;-58
2022/03/09 07:35:18;;;;;;;13.32;8.77;;;;;;;;;;5091301;28;20105;-58
2022/03/09 07:37:44;;;;;;;13.38;8.35;;;;;;;;;;5091022;28;20032;-58
2022/03/09 07:40:10;;;;;;;14.60;8.73;;;;;;;;;;5087500;28;20043;-58
2022/03/09 07:42:36;;;;;;;14.30;8.93;;;;;;;;;;5091365;28;20115;-58
2022/03/09 07:45:06;;;;;;;16.05;8.88;;;;;;;;;;5089188;28;20786;-58
2022/03/09 07:47:32;;;;;;;16.67;8.35;;;;;;;;;;5090758;28;20050;-58
2022/03/09 07:49:58;;;;;;;12.43;8.30;;;;;;;;;;5091363;28;20119;-59
2022/03/09 07:52:24;;;;;;;14.50;8.85;;;;;;;;;;5089550;28;20167;-59
2022/03/09 07:54:50;;;;;;;13.98;9.00;;;;;;;;;;5089429;28;20039;-58
2022/03/09 07:57:16;;;;;;;13.63;8.18;;;;;;;;;;5089385;28;20047;-58
2022/03/09 07:59:42;;;;;;;13.60;9.02;;;;;;;;;;5082976;28;20055;-58
2022/03/09 08:02:08;;;;;;;12.95;7.97;;;;;;;;;;5091474;28;20498;-59
2022/03/09 08:04:35;;;;;;;17.25;8.65;;;;;;;;;;5088584;28;20044;-59
2022/03/09 08:07:00;;;;;;;14.00;8.65;;;;;;;;;;5087147;28;20075;-58
2022/03/09 08:09:26;;;;;;;12.13;8.23;;;;;;;;;;5084972;28;20105;-59
2022/03/09 08:11:52;;;;;;;12.38;7.80;;;;;;;;;;5088026;28;20024;-58
2022/03/09 08:14:19;;;;;;;13.77;8.43;;;;;;;;;;5089237;28;20044;-59
2022/03/09 08:16:45;;;;;;;12.82;7.95;;;;;;;;;;5086940;28;20036;-59
2022/03/09 08:19:11;;;;;;;12.82;7.90;;;;;;;;;;5089968;28;20042;-58
2022/03/09 08:21:37;;;;;;;12.95;7.85;;;;;;;;;;5089619;28;20040;-59
2022/03/09 08:24:03;;;;;;;14.77;7.82;;;;;;;;;;5091778;28;20055;-59
2022/03/09 08:26:29;;;;;;;14.88;7.78;;;;;;;;;;5089106;28;20067;-59
2022/03/09 08:28:55;;;;;;;11.38;7.10;;;;;;;;;;5082704;28;20490;-59
2022/03/09 08:31:21;;;;;;;13.20;8.60;;;;;;;;;;5089188;28;20032;-59
2022/03/09 08:33:47;;;;;;;14.35;7.88;;;;;;;;;;5089972;28;20520;-59
2022/03/09 08:36:13;;;;;;;11.77;7.13;;;;;;;;;;5089362;28;20032;-59
2022/03/09 08:38:39;;;;;;;11.00;6.95;;;;;;;;;;5089088;28;20095;-59
2022/03/09 08:41:05;;;;;;;13.85;8.32;;;;;;;;;;5090036;28;20401;-58
2022/03/09 08:43:31;;;;;;;13.63;7.32;;;;;;;;;;5090479;28;20040;-59
2022/03/09 08:45:57;;;;;;;14.15;7.28;;;;;;;;;;5087776;28;20036;-58
2022/03/09 08:48:26;;;;;;;13.02;7.07;;;;;;;;;;5087072;28;20069;-58
2022/03/09 08:50:52;;;;;;;10.02;7.38;;;;;;;;;;5090342;28;20035;-59
2022/03/09 08:53:18;;;;;;;12.65;7.53;;;;;;;;;;5091098;28;20048;-59
2022/03/09 08:55:44;;;;;;;14.00;8.20;;;;;;;;;;5089369;28;20036;-59
2022/03/09 08:58:10;;;;;;;11.38;7.50;;;;;;;;;;5084420;28;20055;-59
2022/03/09 09:00:36;;;;;;;14.48;7.70;;;;;;;;;;5089104;28;20042;-58
2022/03/09 09:03:02;;;;;;;12.48;7.53;;;;;;;;;;5087558;28;20489;-59
2022/03/09 09:05:28;;;;;;;13.05;7.43;;;;;;;;;;5088318;28;20051;-59
2022/03/09 09:07:54;;;;;;;12.70;8.10;;;;;;;;;;5088400;28;20105;-58
2022/03/09 09:10:21;;;;;;;12.00;7.15;;;;;;;;;;5085023;28;20700;-59
2022/03/09 09:12:50;;;;;;;12.02;7.55;;;;;;;;;;5092619;28;20040;-58
2022/03/09 09:15:16;;;;;;;14.25;7.10;;;;;;;;;;5095615;28;20046;-59
2022/03/09 09:17:42;;;;;;;11.75;7.35;;;;;;;;;;5090543;28;20040;-59
2022/03/09 09:20:08;;;;;;;12.15;7.45;;;;;;;;;;5098307;28;20047;-59
2022/03/09 09:22:34;;;;;;;11.07;6.90;;;;;;;;;;5093414;28;20051;-59
2022/03/09 09:25:01;;;;;;;10.77;7.32;;;;;;;;;;5104197;28;20040;-59
2022/03/09 09:27:27;;;;;;;12.68;7.10;;;;;;;;;;5094599;28;20044;-59
2022/03/09 09:29:54;;;;;;;12.88;7.47;;;;;;;;;;5091025;28;20489;-59
2022/03/09 09:32:20;;;;;;;11.85;6.95;;;;;;;;;;5091403;28;20040;-59
2022/03/09 09:34:46;;;;;;;10.32;7.80;;;;;;;;;;5093098;28;20517;-59
2022/03/09 09:37:12;;;;;;;13.05;7.90;;;;;;;;;;5093418;28;20544;-58
2022/03/09 09:39:39;;;;;;;13.77;7.75;;;;;;;;;;5109445;28;20054;-58
2022/03/09 09:42:05;;;;;;;13.15;8.02;;;;;;;;;;5115104;28;20040;-58
2022/03/09 09:44:31;;;;;;;11.80;7.13;;;;;;;;;;5115211;28;20455;-58
2022/03/09 09:46:57;;;;;;;10.60;7.53;;;;;;;;;;5115181;28;20043;-58
2022/03/09 09:49:24;;;;;;;12.70;6.80;;;;;;;;;;5113598;28;20393;-58
2022/03/09 09:51:51;;;;;;;11.35;7.18;;;;;;;;;;5094881;28;20036;-58
2022/03/09 09:54:17;;;;;;;11.68;7.70;;;;;;;;;;5095093;28;20035;-58
2022/03/09 09:56:44;;;;;;;13.68;6.90;;;;;;;;;;5113549;28;20044;-58
2022/03/09 09:59:10;;;;;;;11.88;6.95;;;;;;;;;;5115026;28;20400;-58
2022/03/09 10:01:36;;;;;;;12.57;7.53;;;;;;;;;;5114903;28;20032;-58
2022/03/09 10:04:03;;;;;;;11.60;7.13;;;;;;;;;;5113072;27;20527;-58
2022/03/09 10:06:30;;;;;;;10.50;7.07;;;;;;;;;;5114860;28;20405;-58
2022/03/09 10:09:12;;;;;;;12.75;7.35;;;;;;;;;;5113963;28;20040;-58
2022/03/09 10:11:44;;;;;;;12.40;6.80;;;;;;;;;;5115199;27;20043;-58
2022/03/09 10:14:10;;;;;;;11.57;7.65;;;;;;;;;;5112438;28;20040;-58
2022/03/09 10:16:36;;;;;;;12.65;7.95;;;;;;;;;;5110703;28;20062;-58
2022/03/09 10:19:02;;;;;;;13.23;8.43;;;;;;;;;;5094015;28;20036;-58
2022/03/09 10:21:30;;;;;;;13.15;7.85;;;;;;;;;;5093807;28;20043;-58
2022/03/09 10:24:06;;;;;;;12.32;7.53;;;;;;;;;;5097743;28;20527;-58
2022/03/09 10:26:35;;;;;;;9.80;7.38;;;;;;;;;;5113149;28;20055;-58
2022/03/09 10:29:07;;;;;;;10.43;6.95;;;;;;;;;;5113447;28;20036;-58
2022/03/09 10:31:39;;;;;;;13.68;7.43;;;;;;;;;;5097563;27;20036;-59
2022/03/09 10:34:09;;;;;;;13.82;7.90;;;;;;;;;;5094536;28;20135;-58
2022/03/09 10:36:35;;;;;;;12.82;7.80;;;;;;;;;;5114690;28;20461;-59
2022/03/09 10:39:12;;;;;;;10.32;7.28;;;;;;;;;;5111713;28;20040;-59
2022/03/09 10:41:38;;;;;;;12.07;7.78;;;;;;;;;;5114518;28;20044;-59
2022/03/09 10:44:04;;;;;;;12.40;8.30;;;;;;;;;;5104779;28;20101;-59
2022/03/09 10:46:41;;;;;;;14.65;7.82;;;;;;;;;;5092008;28;20054;-59
2022/03/09 10:49:08;;;;;;;12.63;7.38;;;;;;;;;;5097804;28;20471;-59
2022/03/09 10:51:38;;;;;;;13.75;7.65;;;;;;;;;;5113987;28;20111;-59
2022/03/09 10:54:05;;;;;;;12.55;7.75;;;;;;;;;;5113104;28;20050;-59
2022/03/09 10:56:32;;;;;;;15.90;8.32;;;;;;;;;;5112561;28;20481;-59
2022/03/09 10:59:08;;;;;;;14.73;7.57;;;;;;;;;;5093064;28;20036;-59
2022/03/09 11:01:34;;;;;;;13.02;8.48;;;;;;;;;;5093838;28;20120;-59
2022/03/09 11:04:09;;;;;;;10.95;7.93;;;;;;;;;;5096119;28;20059;-59
2022/03/09 11:06:36;;;;;;;14.25;7.88;;;;;;;;;;5113781;28;20043;-59
2022/03/09 11:09:02;;;;;;;13.13;8.02;;;;;;;;;;5113135;28;20066;-59
2022/03/09 11:11:28;;;;;;;18.58;8.48;;;;;;;;;;5107421;28;20064;-59
2022/03/09 11:13:55;;;;;;;12.15;8.40;;;;;;;;;;5111940;28;20044;-59
2022/03/09 11:16:21;;;;;;;13.57;8.25;;;;;;;;;;5113502;28;20035;-59
2022/03/09 11:18:47;;;;;;;12.30;7.55;;;;;;;;;;5104179;28;20040;-59
2022/03/09 11:21:14;;;;;;;12.20;7.70;;;;;;;;;;5093016;28;20436;-59
2022/03/09 11:23:41;;;;;;;11.93;7.90;;;;;;;;;;5094170;28;20035;-59
2022/03/09 11:26:14;;;;;;;11.27;7.80;;;;;;;;;;5102776;22;20729;-59
2022/03/09 11:28:40;;;;;;;12.90;8.65;;;;;;;;;;5071771;28;20056;-59
2022/03/09 11:31:09;;;;;;;12.63;8.40;;;;;;;;;;5072776;28;20044;-59
2022/03/09 11:33:52;;;;;;;12.20;7.65;;;;;;;;;;5072582;28;20064;-59
2022/03/09 11:36:21;;;;;;;13.05;8.27;;;;;;;;;;5077103;28;20044;-59
2022/03/09 11:38:48;;;;;;;11.18;8.02;;;;;;;;;;5092447;28;20520;-59
2022/03/09 11:41:18;;;;;;;11.00;8.00;;;;;;;;;;5092473;28;20520;-59
2022/03/09 11:43:44;;;;;;;13.77;8.57;;;;;;;;;;5092386;28;20489;-59
2022/03/09 11:46:10;;;;;;;16.98;9.18;;;;;;;;;;5092235;28;20551;-59
2022/03/09 11:48:48;;;;;;;12.43;7.95;;;;;;;;;;5092059;28;20035;-59
2022/03/09 11:51:14;;;;;;;14.88;8.88;;;;;;;;;;5092496;28;20507;-59
2022/03/09 11:53:41;;;;;;;13.73;8.07;;;;;;;;;;5091931;28;20043;-59
2022/03/09 11:56:26;;;;;;;12.75;8.68;;;;;;;;;;5092414;28;20040;-59
2022/03/09 11:59:12;;;;;;;12.27;8.43;;;;;;;;;;5073871;28;20090;-59
2022/03/09 12:01:57;;;;;;;12.80;8.27;;;;;;;;;;5077969;28;20048;-59
2022/03/09 12:04:53;;;;;;;14.18;7.97;;;;;;;;;;5092494;28;20490;-59
2022/03/09 12:07:29;;;;;;;11.65;8.20;;;;;;;;;;5091242;28;20040;-59
2022/03/09 12:09:58;;;;;;;11.57;8.68;;;;;;;;;;5091428;28;20032;-59
2022/03/09 12:12:25;;;;;;;14.60;8.65;;;;;;;;;;5092478;28;20386;-59
2022/03/09 12:15:10;;;;;;;15.77;8.93;;;;;;;;;;5092354;28;20107;-59
2022/03/09 12:17:47;;;;;;;15.32;8.32;;;;;;;;;;5091278;28;20044;-59
2022/03/09 12:20:18;;;;;;;13.10;8.43;;;;;;;;;;5091651;28;20058;-59
2022/03/09 12:22:56;;;;;;;11.30;8.35;;;;;;;;;;5092313;28;20040;-59
2022/03/09 12:25:39;;;;;;;13.75;8.30;;;;;;;;;;5091420;28;20097;-59
2022/03/09 12:28:20;;;;;;;13.75;9.07;;;;;;;;;;5091559;28;20063;-59
2022/03/09 12:30:47;;;;;;;15.00;8.68;;;;;;;;;;5091767;28;20036;-59
2022/03/09 12:33:20;;;;;;;14.75;8.60;;;;;;;;;;5073657;28;20040;-59
2022/03/09 12:35:46;;;;;;;12.95;8.48;;;;;;;;;;5091740;28;20477;-59
2022/03/09 12:38:12;;;;;;;15.48;8.60;;;;;;;;;;5091657;28;20039;-59
2022/03/09 12:40:38;;;;;;;15.45;8.48;;;;;;;;;;5091523;28;20032;-59
2022/03/09 12:43:05;;;;;;;12.90;8.65;;;;;;;;;;5091045;28;20497;-59
2022/03/09 12:45:49;;;;;;;13.52;9.13;;;;;;;;;;5091472;28;20091;-59
2022/03/09 12:48:18;;;;;;;14.80;9.25;;;;;;;;;;5091052;28;20554;-59
2022/03/09 12:50:45;;;;;;;13.75;9.18;;;;;;;;;;5091711;28;20040;-59
2022/03/09 12:53:11;;;;;;;13.25;8.18;;;;;;;;;;5092245;28;20040;-59
2022/03/09 12:55:37;;;;;;;13.57;8.80;;;;;;;;;;5091133;28;20493;-59
2022/03/09 12:58:03;;;;;;;13.75;8.93;;;;;;;;;;5091085;28;20618;-59
2022/03/09 13:00:32;;;;;;;16.35;9.70;;;;;;;;;;5090941;28;20123;-59
2022/03/09 13:03:00;;;;;;;13.07;8.75;;;;;;;;;;5091459;28;20051;-59
2022/03/09 13:05:27;;;;;;;14.43;9.70;;;;;;;;;;5091613;28;20044;-59
2022/03/09 13:08:14;;;;;;;13.93;9.25;;;;;;;;;;5091079;28;20047;-59
2022/03/09 13:10:43;;;;;;;13.63;8.30;;;;;;;;;;5094197;28;20043;-59
2022/03/09 13:13:09;;;;;;;14.65;9.57;;;;;;;;;;5095371;28;20048;-59
2022/03/09 13:15:49;;;;;;;14.30;9.10;;;;;;;;;;5094953;28;20028;-59
2022/03/09 13:18:25;;;;;;;13.20;9.35;;;;;;;;;;5095332;28;20440;-59
2022/03/09 13:20:51;;;;;;;15.02;9.50;;;;;;;;;;5095276;28;20044;-59
2022/03/09 13:23:27;;;;;;;12.80;8.90;;;;;;;;;;5095864;28;20047;-59
2022/03/09 13:25:54;;;;;;;15.68;8.93;;;;;;;;;;5094858;28;20177;-59
2022/03/09 13:28:29;;;;;;;14.13;9.38;;;;;;;;;;5094952;28;20032;-59
2022/03/09 13:30:56;;;;;;;14.38;9.32;;;;;;;;;;5091811;28;20044;-59
2022/03/09 13:33:22;;;;;;;15.05;9.98;;;;;;;;;;5075885;28;20084;-59
2022/03/09 13:35:50;;;;;;;16.48;9.07;;;;;;;;;;5091970;28;20047;-59
2022/03/09 13:38:20;;;;;;;12.10;8.25;;;;;;;;;;5091704;28;20036;-59
2022/03/09 13:40:46;;;;;;;14.57;9.15;;;;;;;;;;5084020;28;20122;-59
2022/03/09 13:43:12;;;;;;;13.57;9.55;;;;;;;;;;5091210;28;20032;-59
2022/03/09 13:45:40;;;;;;;14.43;9.50;;;;;;;;;;5092303;28;20085;-59
2022/03/09 13:48:07;;;;;;;13.38;9.48;;;;;;;;;;5092517;28;20075;-59
2022/03/09 13:50:48;;;;;;;12.60;8.68;;;;;;;;;;5066920;28;20525;-59
2022/03/09 13:53:14;;;;;;;13.38;8.82;;;;;;;;;;5093838;28;20077;-59
2022/03/09 13:55:42;;;;;;;13.05;8.77;;;;;;;;;;5092811;28;20040;-59
2022/03/09 13:58:09;;;;;;;14.25;9.00;;;;;;;;;;5087043;28;20493;-59
2022/03/09 14:00:36;;;;;;;12.20;8.85;;;;;;;;;;5093419;28;20557;-59
2022/03/09 14:03:13;;;;;;;13.57;8.25;;;;;;;;;;5094164;28;20050;-59
2022/03/09 14:05:41;;;;;;;13.45;8.82;;;;;;;;;;5093599;28;20128;-59
2022/03/09 14:08:08;;;;;;;12.98;9.00;;;;;;;;;;5092849;28;20378;-59
2022/03/09 14:10:36;;;;;;;16.38;9.48;;;;;;;;;;5090424;28;20046;-59
2022/03/09 14:13:07;;;;;;;12.68;9.00;;;;;;;;;;5091976;28;20036;-59
2022/03/09 14:15:33;;;;;;;15.63;10.07;;;;;;;;;;5091138;28;20035;-59
2022/03/09 14:18:00;;;;;;;14.23;10.40;;;;;;;;;;5092108;28;20043;-59
2022/03/09 14:20:26;;;;;;;15.50;9.05;;;;;;;;;;5075359;28;20082;-59
2022/03/09 14:22:53;;;;;;;14.52;9.45;;;;;;;;;;5078580;28;20036;-59
2022/03/09 14:25:19;;;;;;;17.27;9.68;;;;;;;;;;5087515;28;20067;-59
2022/03/09 14:27:45;;;;;;;17.08;9.20;;;;;;;;;;5083778;28;20246;-59
2022/03/09 14:30:12;;;;;;;14.82;9.43;;;;;;;;;;5084137;28;20036;-59
2022/03/09 14:32:39;;;;;;;14.80;9.60;;;;;;;;;;5088237;28;20489;-59
2022/03/09 14:35:06;;;;;;;13.40;9.05;;;;;;;;;;5093326;28;20032;-59